• Join FlightAware (Why Join?)
  • Login
  • US Flag GB Flag 
02:22 EDT


 

Airport Tracker/Info


-or-


 

Live Flight TrackerFlight Track Log ✈ UAL33 ✈ 20-Sep-2013 ✈ RJAA / NRT - KLAX

Flight Track Log - Related Links

Times and Time Zones

All times are in EDT time to prevent confusion due to time zone crossing. See the UAL33 flight status page for this flight to view local times or setup timezone preferences in your user account.

Time Position Orientation Groundspeed Altitude Reporting Facility
EDT Latitude Longitude Course Direction KTS MPH feet Rate Location/Type
05:54 35.7440 140.3910 148° Southeast 163 188 1,000  Level FlightAware
05:54 35.7300 140.4010 150° Southeast 166 191 1,900 2,160 Climbing FlightAware
05:55 35.7140 140.4120 151° Southeast 188 216 2,600 1,860 Climbing FlightAware
05:55 35.6990 140.4230 149° Southeast 206 237 3,200 1,500 Climbing FlightAware
05:55 35.6810 140.4360 150° Southeast 232 267 3,600 1,260 Climbing FlightAware
05:56 35.6610 140.4500 150° Southeast 254 292 4,100 1,860 Climbing FlightAware
05:56 35.6360 140.4680 150° Southeast 269 310 5,000 2,040 Climbing FlightAware
05:57 35.6150 140.4830 150° Southeast 271 312 5,600 1,320 Climbing FlightAware
05:57 35.5930 140.4990 149° Southeast 277 319 5,900 480 Climbing FlightAware
05:57 35.5750 140.5120 150° Southeast 279 321 5,900 120 Level FlightAware
05:57 35.5520 140.5280 150° Southeast 279 321 6,000 840 Climbing FlightAware
05:58 35.5300 140.5450 148° Southeast 284 327 6,500 1,440 Climbing FlightAware
05:58 35.5210 140.5530 144° Southeast 282 325 6,700 1,080 Climbing FlightAware
05:58 35.5140 140.5620 134° Southeast 284 327 6,800 600 Climbing FlightAware
05:58 35.5070 140.5800 116° Southeast 287 330 6,900 300 Climbing FlightAware
05:58 35.5060 140.5920 96° East 289 333 6,900 180 Level FlightAware
05:59 35.5050 140.6260 92° East 291 335 7,000 1,200 Climbing FlightAware
05:59 35.5040 140.6580 92° East 291 335 7,700 2,280 Climbing FlightAware
06:00 35.5030 140.6980 92° East 295 339 8,700 2,400 Climbing FlightAware
06:00 35.5030 140.7330 90° East 299 344 9,500 1,800 Climbing FlightAware
06:00 35.5010 140.7950 92° East 324 373 10,400 1,320 Climbing FlightAware
06:01 35.4990 140.8560 92° East 355 409 11,000 1,020 Climbing FlightAware
06:02 35.4970 140.9330 92° East 391 450 11,600 1,140 Climbing FlightAware
06:02 35.4940 141.0120 93° East 417 480 12,400 1,500 Climbing FlightAware
06:03 35.4990 141.0730 84° East 425 489 13,200 1,920 Climbing FlightAware
06:03 35.5150 141.1540 76° East 430 495 14,400 2,160 Climbing FlightAware
06:04 35.5340 141.2450 76° East 441 507 15,700 2,220 Climbing FlightAware
06:04 35.5540 141.3440 76° East 445 512 17,200 2,100 Climbing FlightAware
06:05 35.5750 141.4520 77° East 450 518 18,700 2,040 Climbing FlightAware
06:06 35.5950 141.5560 77° East 455 524 20,100 1,980 Climbing FlightAware
06:06 35.6120 141.6440 77° East 460 529 21,200 1,800 Climbing FlightAware
06:07 35.6290 141.7340 77° East 469 540 22,200 1,380 Climbing FlightAware
06:08 35.6500 141.8350 76° East 482 555 23,000 1,320 Climbing FlightAware
06:08 35.6730 141.9490 76° East 489 563 24,100 1,680 Climbing FlightAware
06:09 35.6900 142.0310 76° East 485 558 25,200 1,800 Climbing FlightAware
06:10 35.7120 142.1390 76° East 494 568 26,200 1,440 Climbing FlightAware
06:10 35.7270 142.2270 78° East 500 575 26,900 780 Climbing FlightAware
06:11 35.7460 142.3560 80° East 507 583 27,300 1,260 Climbing FlightAware
06:12 35.7650 142.4950 80° East 519 597 28,800 1,560 Climbing FlightAware
06:12 35.7810 142.6100 80° East 529 609 29,500 660 Climbing FlightAware
06:13 35.7980 142.7320 80° East 530 610 29,800 1,260 Climbing FlightAware
06:14 35.8200 142.8910 80° East 536 617 31,500 1,860 Climbing FlightAware
06:14 35.8350 143.0020 81° East 534 615 32,400 1,500 Climbing FlightAware
06:15 35.8510 143.1200 80° East 531 611 33,400 1,440 Climbing FlightAware
06:16 35.8600 143.1890 81° East 531 611 34,000 1,440 Climbing FlightAware
06:16 35.8770 143.3130 80° East 525 604 35,000 720 Climbing FlightAware
06:17 35.8900 143.4060 80° East 525 604 35,000  Level FlightAware
06:17 35.9030 143.4960 80° East 525 604 35,000  Level FlightAware
06:18 35.9160 143.5870 80° East 525 604 35,000 1,740 Level FlightAware
06:19 35.9300 143.7220 83° East 526 605 37,000 1,560 Climbing FlightAware
06:19 35.9480 143.8460 80° East 525 604 37,000  Level FlightAware
06:20 35.9610 143.9370 80° East 525 604 37,000  Level FlightAware
06:21 35.9740 144.0300 80° East 525 604 37,000  Level FlightAware
06:21 35.9870 144.1200 80° East 525 604 37,000  Level FlightAware
06:22 36.0000 144.2110 80° East 525 604 37,000  Level FlightAware
06:22 36.0130 144.3010 80° East 525 604 37,000  Level FlightAware
06:23 36.0260 144.3970 80° East 525 604 37,000  Level FlightAware
06:24 36.0390 144.4870 80° East 525 604 37,000  Level FlightAware
06:24 36.0520 144.5780 80° East 525 604 37,000  Level FlightAware
06:25 36.0650 144.6680 80° East 525 604 37,000  Level FlightAware
06:25 36.0780 144.7590 80° East 525 604 37,000  Level FlightAware
06:26 36.0910 144.8490 80° East 525 604 37,000  Level FlightAware
06:27 36.1040 144.9400 80° East 525 604 37,000  Level FlightAware
06:27 36.1160 145.0310 81° East 525 604 37,000  Level FlightAware
06:28 36.1290 145.1210 80° East 525 604 37,000  Level FlightAware
06:28 36.1420 145.2120 80° East 525 604 37,000  Level FlightAware
06:31 36.3062 145.5455 58° Northeast  Level Estimated
06:32 36.3823 145.7010 59° Northeast  Level Estimated
06:33 36.4582 145.8569 59° Northeast  Level Estimated
06:34 36.5338 146.0131 59° Northeast  Level Estimated
06:35 36.6093 146.1696 59° Northeast  Level Estimated
06:36 36.6846 146.3264 59° Northeast  Level Estimated
06:37 36.7596 146.4835 59° Northeast  Level Estimated
06:38 36.8344 146.6409 59° Northeast  Level Estimated
06:39 36.9091 146.7986 59° Northeast  Level Estimated
06:40 36.9835 146.9567 59° Northeast  Level Estimated
06:41 37.0577 147.1150 60° Northeast  Level Estimated
06:42 37.1317 147.2737 60° Northeast  Level Estimated
06:43 37.2055 147.4326 60° Northeast  Level Estimated
06:44 37.2791 147.5919 60° Northeast  Level Estimated
06:45 37.3525 147.7515 60° Northeast  Level Estimated
06:46 37.4256 147.9114 60° Northeast  Level Estimated
06:47 37.4986 148.0716 60° Northeast  Level Estimated
06:48 37.5713 148.2321 60° Northeast  Level Estimated
06:49 37.6438 148.3929 60° Northeast  Level Estimated
06:50 37.7161 148.5541 60° Northeast  Level Estimated
06:51 37.7881 148.7155 61° Northeast  Level Estimated
06:52 37.8600 148.8773 61° Northeast  Level Estimated
06:53 37.9316 149.0394 61° Northeast  Level Estimated
06:54 38.0030 149.2018 61° Northeast  Level Estimated
06:55 38.0742 149.3645 61° Northeast  Level Estimated
06:56 38.1451 149.5276 61° Northeast  Level Estimated
06:57 38.2158 149.6909 61° Northeast  Level Estimated
06:58 38.2863 149.8546 61° Northeast  Level Estimated
06:59 38.3566 150.0186 61° Northeast  Level Estimated
07:00 38.4267 150.1829 61° Northeast  Level Estimated
07:01 38.4965 150.3475 62° Northeast  Level Estimated
07:02 38.5660 150.5125 62° Northeast  Level Estimated
07:03 38.6354 150.6777 62° Northeast  Level Estimated
07:04 38.7045 150.8433 62° Northeast  Level Estimated
07:05 38.7734 151.0092 62° Northeast  Level Estimated
07:06 38.8420 151.1754 62° Northeast  Level Estimated
07:07 38.9104 151.3419 62° Northeast  Level Estimated
07:08 38.9786 151.5088 62° Northeast  Level Estimated
07:09 39.0465 151.6760 62° Northeast  Level Estimated
07:10 39.1142 151.8435 62° Northeast  Level Estimated
07:11 39.1817 152.0113 63° Northeast  Level Estimated
07:12 39.2489 152.1795 63° Northeast  Level Estimated
07:13 39.3159 152.3480 63° Northeast  Level Estimated
07:14 39.3826 152.5168 63° Northeast  Level Estimated
07:15 39.4491 152.6859 63° Northeast  Level Estimated
07:16 39.5153 152.8553 63° Northeast  Level Estimated
07:17 39.5813 153.0251 63° Northeast  Level Estimated
07:18 39.6471 153.1952 63° Northeast  Level Estimated
07:19 39.7126 153.3656 63° Northeast  Level Estimated
07:20 39.7778 153.5363 64° Northeast  Level Estimated
07:21 39.8428 153.7074 64° Northeast  Level Estimated
07:22 39.9076 153.8787 64° Northeast  Level Estimated
07:23 39.9720 154.0504 64° Northeast  Level Estimated
07:24 40.0363 154.2225 64° Northeast  Level Estimated
07:25 40.1003 154.3948 64° Northeast  Level Estimated
07:26 40.1640 154.5675 64° Northeast  Level Estimated
07:27 40.2275 154.7405 64° Northeast  Level Estimated
07:28 40.2907 154.9138 64° Northeast  Level Estimated
07:29 40.3536 155.0875 65° Northeast  Level Estimated
07:30 40.4163 155.2614 65° Northeast  Level Estimated
07:31 40.4787 155.4357 65° Northeast  Level Estimated
07:32 40.5409 155.6103 65° Northeast  Level Estimated
07:33 40.6028 155.7853 65° Northeast  Level Estimated
07:34 40.6645 155.9605 65° Northeast  Level Estimated
07:35 40.7258 156.1361 65° Northeast  Level Estimated
07:36 40.7870 156.3120 65° Northeast  Level Estimated
07:37 40.8478 156.4883 65° Northeast  Level Estimated
07:38 40.9084 156.6648 66° East  Level Estimated
07:39 40.9687 156.8417 66° East  Level Estimated
07:40 41.0287 157.0189 66° East  Level Estimated
07:41 41.0885 157.1964 66° East  Level Estimated
07:42 41.1479 157.3743 66° East  Level Estimated
07:43 41.2072 157.5525 66° East  Level Estimated
07:44 41.2661 157.7310 66° East  Level Estimated
07:45 41.3248 157.9098 66° East  Level Estimated
07:46 41.3831 158.0889 66° East  Level Estimated
07:47 41.4413 158.2684 67° East  Level Estimated
07:48 41.4991 158.4482 67° East  Level Estimated
07:49 41.5566 158.6283 67° East  Level Estimated
07:50 41.6139 158.8087 67° East  Level Estimated
07:51 41.6709 158.9894 67° East  Level Estimated
07:52 41.7276 159.1705 67° East  Level Estimated
07:53 41.7840 159.3519 67° East  Level Estimated
07:54 41.8401 159.5336 67° East  Level Estimated
07:55 41.8960 159.7156 68° East  Level Estimated
07:56 41.9517 159.8986 68° East  Level Estimated
07:57 42.0072 160.0819 68° East  Level Estimated
07:58 42.0624 160.2655 68° East  Level Estimated
07:59 42.1173 160.4495 68° East  Level Estimated
08:00 42.1718 160.6338 68° East  Level Estimated
08:01 42.2262 160.8184 68° East  Level Estimated
08:02 42.2802 161.0033 68° East  Level Estimated
08:03 42.3339 161.1886 69° East  Level Estimated
08:04 42.3872 161.3741 69° East  Level Estimated
08:05 42.4403 161.5600 69° East  Level Estimated
08:06 42.4931 161.7462 69° East  Level Estimated
08:07 42.5457 161.9327 69° East  Level Estimated
08:08 42.5979 162.1195 69° East  Level Estimated
08:09 42.6497 162.3066 69° East  Level Estimated
08:10 42.7013 162.4941 69° East  Level Estimated
08:11 42.7526 162.6818 70° East  Level Estimated
08:12 42.8036 162.8699 70° East  Level Estimated
08:13 42.8543 163.0583 70° East  Level Estimated
08:14 42.9046 163.2469 70° East  Level Estimated
08:15 42.9547 163.4359 70° East  Level Estimated
08:16 43.0044 163.6252 70° East  Level Estimated
08:17 43.0538 163.8148 70° East  Level Estimated
08:18 43.1029 164.0047 70° East  Level Estimated
08:19 43.1517 164.1949 71° East  Level Estimated
08:20 43.2002 164.3854 71° East  Level Estimated
08:21 43.2484 164.5762 71° East  Level Estimated
08:21 43.5833 164.7667 67° East 566 651 37,000  Level Oakland Oceanic (ODAPS)
08:22 43.2962 164.7673 71° East  Level Estimated
08:23 43.3437 164.9588 71° East  Level Estimated
08:24 43.3909 165.1505 71° East  Level Estimated
08:25 43.4378 165.3425 71° East  Level Estimated
08:26 43.4844 165.5348 71° East  Level Estimated
08:27 43.5306 165.7274 72° East  Level Estimated
08:28 43.9881 166.1507 68° East 566 651 37,000  Level FlightAware Transoceanic
08:29 44.0445 166.3499 69° East 566 651 37,000  Level FlightAware Transoceanic
08:30 44.1006 166.5495 69° East 566 651 37,000  Level FlightAware Transoceanic
08:31 44.1564 166.7495 69° East 566 651 37,000  Level FlightAware Transoceanic
08:32 44.2118 166.9499 69° East 566 651 37,000  Level FlightAware Transoceanic
08:33 44.2668 167.1506 69° East 566 651 37,000  Level FlightAware Transoceanic
08:34 44.3215 167.3517 69° East 566 651 37,000  Level FlightAware Transoceanic
08:35 44.3759 167.5533 69° East 566 651 37,000  Level FlightAware Transoceanic
08:35 44.3667 167.5167 69° East 566 651 37,000  Level Oakland Oceanic (ODAPS)
08:36 44.4299 167.7551 70° East 566 651 37,000  Level FlightAware Transoceanic
08:37 44.4835 167.9574 70° East 566 651 37,000  Level FlightAware Transoceanic
08:38 44.5368 168.1600 70° East 566 651 37,000  Level FlightAware Transoceanic
08:39 44.5897 168.3630 70° East 566 651 37,000  Level FlightAware Transoceanic
08:40 44.6423 168.5663 70° East 566 651 37,000  Level FlightAware Transoceanic
08:41 44.6945 168.7700 70° East 566 651 37,000  Level FlightAware Transoceanic
08:42 44.7427 168.9587 70° East 566 651 37,000  Level FlightAware Transoceanic
08:43 44.7949 169.1662 71° East 566 651 37,000  Level FlightAware Transoceanic
08:44 44.8467 169.3741 71° East 566 651 37,000  Level FlightAware Transoceanic
08:45 44.8982 169.5824 71° East 566 651 37,000  Level FlightAware Transoceanic
08:46 44.9493 169.7910 71° East 566 651 37,000  Level FlightAware Transoceanic
08:47 45.0000 170.0000 70° East 566 651 37,000  Level FlightAware Transoceanic
08:48 45.0562 170.2240 71° East 566 651 37,000 660 Level FlightAware Transoceanic
08:48 45.0500 170.2333 70° East 605 696 38,000  Climbing Oakland Oceanic (ODAPS)
08:49 45.1119 170.4484 71° East 566 651 37,000  Descending FlightAware Transoceanic
08:49 45.1167 170.4333 71° East 600 690 38,000  Climbing Oakland Oceanic (ODAPS)
08:50 45.1673 170.6732 71° East 566 651 37,000 -600 Descending FlightAware Transoceanic
08:51 45.2221 170.8985 71° East 566 651 37,000  Level FlightAware Transoceanic
08:52 45.2766 171.1243 71° East 566 651 37,000  Level FlightAware Transoceanic
08:53 45.3306 171.3504 71° East 566 651 37,000 480 Level FlightAware Transoceanic
08:54 45.3787 171.5849 71° East 605 696 38,000 480 Climbing FlightAware Transoceanic
08:55 45.4414 171.7912 72° East 600 690 38,000  Level FlightAware Transoceanic
08:56 45.4939 172.0190 72° East 600 690 38,000  Level FlightAware Transoceanic
08:57 45.5460 172.2472 72° East 600 690 38,000  Level FlightAware Transoceanic
08:58 45.5976 172.4758 72° East 600 690 38,000  Level FlightAware Transoceanic
08:59 45.6488 172.7049 72° East 600 690 38,000  Level FlightAware Transoceanic
09:00 45.6995 172.9344 73° East 600 690 38,000  Level FlightAware Transoceanic
09:01 45.7498 173.1643 73° East 600 690 38,000  Level FlightAware Transoceanic
09:02 45.7996 173.3946 73° East 600 690 38,000  Level FlightAware Transoceanic
09:03 45.8489 173.6254 73° East 600 690 38,000  Level FlightAware Transoceanic
09:03 45.8500 173.6333 73° East 615 708 38,000  Level Oakland Oceanic (ODAPS)
09:04 45.8978 173.8565 73° East 600 690 38,000  Level FlightAware Transoceanic
09:05 45.9462 174.0880 73° East 600 690 38,000  Level FlightAware Transoceanic
09:06 45.9941 174.3200 74° East 600 690 38,000  Level FlightAware Transoceanic
09:07 46.0416 174.5523 74° East 600 690 38,000  Level FlightAware Transoceanic
09:08 46.0886 174.7850 74° East 600 690 38,000  Level FlightAware Transoceanic
09:09 46.1359 175.0244 74° East 615 708 38,000  Level FlightAware Transoceanic
09:10 46.1819 175.2577 74° East 615 708 38,000  Level FlightAware Transoceanic
09:11 46.2274 175.4913 74° East 615 708 38,000  Level FlightAware Transoceanic
09:12 46.2724 175.7253 75° East 615 708 38,000  Level FlightAware Transoceanic
09:13 46.3170 175.9597 75° East 615 708 38,000  Level FlightAware Transoceanic
09:14 46.3611 176.1945 75° East 615 708 38,000  Level FlightAware Transoceanic
09:15 46.4047 176.4296 75° East 615 708 38,000  Level FlightAware Transoceanic
09:16 46.4478 176.6651 75° East 615 708 38,000  Level FlightAware Transoceanic
09:17 46.4904 176.9010 75° East 615 708 38,000 780 Level FlightAware Transoceanic
09:17 46.4833 176.9000 75° East 619 712 39,000  Climbing Oakland Oceanic (ODAPS)
09:18 46.5326 177.1373 76° East 615 708 38,000 -600 Descending FlightAware Transoceanic
09:19 46.5742 177.3739 76° East 615 708 38,000  Level FlightAware Transoceanic
09:20 46.6154 177.6109 76° East 615 708 38,000  Level FlightAware Transoceanic
09:21 46.6561 177.8483 76° East 615 708 38,000  Level FlightAware Transoceanic
09:22 46.6963 178.0860 76° East 615 708 38,000 480 Level FlightAware Transoceanic
09:23 46.7322 178.3234 76° East 619 712 39,000 480 Climbing FlightAware Transoceanic
09:24 46.7719 178.5619 76° East 619 712 39,000  Level FlightAware Transoceanic
09:25 46.8112 178.8007 77° East 619 712 39,000  Level FlightAware Transoceanic
09:26 46.8500 179.0399 77° East 619 712 39,000  Level FlightAware Transoceanic
09:27 46.8882 179.2794 77° East 619 712 39,000  Level FlightAware Transoceanic
09:28 46.9260 179.5193 77° East 619 712 39,000  Level FlightAware Transoceanic
09:29 46.9632 179.7595 77° East 619 712 39,000  Level FlightAware Transoceanic
09:29 47.0000 180.0000 78° East 603 694 39,000  Level Oakland Oceanic (ODAPS)
09:30 47.0000 -180.0000 78° East 619 712 39,000  Level FlightAware Transoceanic
09:30 47.0333 -179.7333 78° East 601 692 39,000  Level Oakland Oceanic (ODAPS)
09:31 47.0338 -179.7669 78° East 619 712 39,000  Level FlightAware Transoceanic
09:32 47.0671 -179.5335 78° East 619 712 39,000  Level FlightAware Transoceanic
09:33 47.1000 -179.2998 78° East 619 712 39,000  Level FlightAware Transoceanic
09:34 47.1323 -179.0658 79° East 619 712 39,000  Level FlightAware Transoceanic
09:35 47.1642 -178.8315 79° East 619 712 39,000  Level FlightAware Transoceanic
09:36 47.1988 -178.5382 79° East 601 692 39,000  Level FlightAware Transoceanic
09:37 47.2304 -178.2983 79° East 601 692 39,000  Level FlightAware Transoceanic
09:38 47.2615 -178.0581 79° East 601 692 39,000  Level FlightAware Transoceanic
09:39 47.2921 -177.8176 79° East 601 692 39,000  Level FlightAware Transoceanic
09:40 47.3222 -177.5769 80° East 601 692 39,000  Level FlightAware Transoceanic
09:41 47.3518 -177.3359 80° East 601 692 39,000  Level FlightAware Transoceanic
09:42 47.3809 -177.0946 80° East 601 692 39,000  Level FlightAware Transoceanic
09:43 47.4095 -176.8530 80° East 601 692 39,000  Level FlightAware Transoceanic
09:44 47.4375 -176.6112 80° East 601 692 39,000  Level FlightAware Transoceanic
09:44 47.4667 -176.3667 81° East 591 680 39,000  Level Oakland Oceanic (ODAPS)
09:45 47.4651 -176.3691 81° East 601 692 39,000  Level FlightAware Transoceanic
09:46 47.4921 -176.1268 81° East 601 692 39,000  Level FlightAware Transoceanic
09:47 47.5187 -175.8843 81° East 601 692 39,000  Level FlightAware Transoceanic
09:48 47.5447 -175.6414 81° East 601 692 39,000  Level FlightAware Transoceanic
09:49 47.5702 -175.3984 81° East 601 692 39,000  Level FlightAware Transoceanic
09:50 47.5952 -175.1551 81° East 601 692 39,000  Level FlightAware Transoceanic
09:51 47.6209 -174.9097 82° East 591 680 39,000  Level FlightAware Transoceanic
09:52 47.6448 -174.6660 82° East 591 680 39,000  Level FlightAware Transoceanic
09:53 47.6682 -174.4221 82° East 591 680 39,000  Level FlightAware Transoceanic
09:54 47.6911 -174.1781 82° East 591 680 39,000  Level FlightAware Transoceanic
09:55 47.7134 -173.9338 82° East 591 680 39,000  Level FlightAware Transoceanic
09:56 47.7353 -173.6893 83° East 591 680 39,000  Level FlightAware Transoceanic
09:57 47.7566 -173.4446 83° East 591 680 39,000  Level FlightAware Transoceanic
09:58 47.7774 -173.1996 83° East 591 680 39,000  Level FlightAware Transoceanic
09:58 47.8000 -173.0333 83° East 583 671 39,000  Level Oakland Oceanic (ODAPS)
09:59 47.7976 -172.9545 83° East 591 680 39,000  Level FlightAware Transoceanic
10:00 47.8174 -172.7093 83° East 591 680 39,000  Level FlightAware Transoceanic
10:01 47.8366 -172.4638 83° East 591 680 39,000  Level FlightAware Transoceanic
10:02 47.8553 -172.2182 84° East 591 680 39,000  Level FlightAware Transoceanic
10:03 47.8735 -171.9723 84° East 591 680 39,000  Level FlightAware Transoceanic
10:04 47.9022 -171.6363 84° East 583 671 39,000  Level FlightAware Transoceanic
10:05 47.9176 -171.4029 84° East 583 671 39,000  Level FlightAware Transoceanic
10:06 47.9325 -171.1694 85° East 583 671 39,000  Level FlightAware Transoceanic
10:07 47.9470 -170.9358 85° East 583 671 39,000  Level FlightAware Transoceanic
10:08 47.9609 -170.7020 85° East 583 671 39,000  Level FlightAware Transoceanic
10:09 47.9744 -170.4681 85° East 583 671 39,000  Level FlightAware Transoceanic
10:10 47.9875 -170.2341 85° East 583 671 39,000  Level FlightAware Transoceanic
10:11 48.0000 -170.0000 86° East 583 671 39,000  Level FlightAware Transoceanic
10:11 48.0000 -170.0000 86° East 564 649 39,000  Level Oakland Oceanic (ODAPS)
10:12 48.0096 -169.7733 86° East 583 671 39,000  Level FlightAware Transoceanic
10:12 48.0167 -169.7500 87° East 560 644 39,000  Level Oakland Oceanic (ODAPS)
10:13 48.0188 -169.5466 87° East 583 671 39,000  Level FlightAware Transoceanic
10:14 48.0276 -169.3197 87° East 583 671 39,000  Level FlightAware Transoceanic
10:15 48.0359 -169.0928 87° East 583 671 39,000  Level FlightAware Transoceanic
10:16 48.0437 -168.8658 87° East 583 671 39,000  Level FlightAware Transoceanic
10:17 48.0521 -168.6071 87° East 564 649 39,000  Level FlightAware Transoceanic
10:18 48.0648 -168.3590 88° East 560 644 39,000  Level FlightAware Transoceanic
10:19 48.0712 -168.1270 88° East 560 644 39,000  Level FlightAware Transoceanic
10:20 48.0771 -167.8949 88° East 560 644 39,000  Level FlightAware Transoceanic
10:21 48.0826 -167.6627 88° East 560 644 39,000  Level FlightAware Transoceanic
10:22 48.0876 -167.4305 88° East 560 644 39,000  Level FlightAware Transoceanic
10:23 48.0921 -167.1982 88° East 560 644 39,000  Level FlightAware Transoceanic
10:24 48.0962 -166.9659 89° East 560 644 39,000  Level FlightAware Transoceanic
10:25 48.0998 -166.7336 89° East 560 644 39,000  Level FlightAware Transoceanic
10:26 48.1029 -166.5012 89° East 560 644 39,000  Level FlightAware Transoceanic
10:26 48.1000 -166.5833 89° East 551 634 39,000  Level Oakland Oceanic (ODAPS)
10:27 48.1055 -166.2688 89° East 560 644 39,000  Level FlightAware Transoceanic
10:28 48.1077 -166.0364 89° East 560 644 39,000  Level FlightAware Transoceanic
10:29 48.1094 -165.8040 89° East 560 644 39,000  Level FlightAware Transoceanic
10:30 48.1106 -165.5716 90° East 560 644 39,000  Level FlightAware Transoceanic
10:31 48.1114 -165.3391 90° East 560 644 39,000  Level FlightAware Transoceanic
10:32 48.1102 -165.2199 90° East 551 634 39,000  Level FlightAware Transoceanic
10:33 48.1103 -164.9927 90° East 551 634 39,000  Level FlightAware Transoceanic
10:34 48.1100 -164.7654 90° East 551 634 39,000  Level FlightAware Transoceanic
10:35 48.1092 -164.5381 90° East 551 634 39,000  Level FlightAware Transoceanic
10:36 48.1080 -164.3109 91° East 551 634 39,000  Level FlightAware Transoceanic
10:37 48.1064 -164.0836 91° East 551 634 39,000  Level FlightAware Transoceanic
10:38 48.1043 -163.8564 91° East 551 634 39,000  Level FlightAware Transoceanic
10:39 48.1017 -163.6292 91° East 551 634 39,000  Level FlightAware Transoceanic
10:40 48.0987 -163.4021 91° East 551 634 39,000  Level FlightAware Transoceanic
10:40 48.1000 -163.4167 91° East 547 629 39,000  Level Oakland Oceanic (ODAPS)
10:41 48.0952 -163.1749 91° East 551 634 39,000  Level FlightAware Transoceanic
10:42 48.0914 -162.9478 92° East 551 634 39,000  Level FlightAware Transoceanic
10:43 48.0870 -162.7207 92° East 551 634 39,000  Level FlightAware Transoceanic
10:44 48.0822 -162.4937 92° East 551 634 39,000  Level FlightAware Transoceanic
10:45 48.0770 -162.2667 92° East 551 634 39,000  Level FlightAware Transoceanic
10:46 48.0722 -162.0485 92° East 547 629 39,000  Level FlightAware Transoceanic
10:47 48.0659 -161.8206 92° East 547 629 39,000  Level FlightAware Transoceanic
10:48 48.0593 -161.5928 93° East 547 629 39,000  Level FlightAware Transoceanic
10:49 48.0522 -161.3650 93° East 547 629 39,000  Level FlightAware Transoceanic
10:50 48.0446 -161.1373 93° East 547 629 39,000  Level FlightAware Transoceanic
10:51 48.0366 -160.9097 93° East 547 629 39,000  Level FlightAware Transoceanic
10:52 48.0281 -160.6822 93° East 547 629 39,000  Level FlightAware Transoceanic
10:53 48.0192 -160.4547 93° East 547 629 39,000  Level FlightAware Transoceanic
10:54 48.0098 -160.2273 94° East 547 629 39,000  Level FlightAware Transoceanic
10:54 48.0167 -160.3000 95° East 541 623 39,000  Level Oakland Oceanic (ODAPS)
10:55 48.0000 -160.0000 110° East 547 629 39,000  Level FlightAware Transoceanic
10:55 48.0000 -160.0000 110° East 559 643 39,000  Level Oakland Oceanic (ODAPS)
10:56 47.9478 -159.7850 110° East 547 629 39,000  Level FlightAware Transoceanic
10:57 47.8952 -159.5705 110° East 547 629 39,000  Level FlightAware Transoceanic
10:58 47.8422 -159.3564 110° East 547 629 39,000  Level FlightAware Transoceanic
10:59 47.7888 -159.1427 110° East 547 629 39,000  Level FlightAware Transoceanic
11:00 47.7404 -158.9508 111° Southeast 541 623 39,000  Level FlightAware Transoceanic
11:01 47.6808 -158.7168 111° Southeast 559 643 39,000  Level FlightAware Transoceanic
11:02 47.6262 -158.5044 111° Southeast 559 643 39,000  Level FlightAware Transoceanic
11:03 47.5712 -158.2925 111° Southeast 559 643 39,000  Level FlightAware Transoceanic
11:04 47.5158 -158.0811 111° Southeast 559 643 39,000  Level FlightAware Transoceanic
11:05 47.4601 -157.8701 111° Southeast 559 643 39,000  Level FlightAware Transoceanic
11:06 47.4039 -157.6596 112° Southeast 559 643 39,000  Level FlightAware Transoceanic
11:07 47.3474 -157.4495 112° Southeast 559 643 39,000  Level FlightAware Transoceanic
11:07 47.3167 -157.3000 112° Southeast 553 636 39,000  Level Oakland Oceanic (ODAPS)
11:08 47.2905 -157.2398 112° Southeast 559 643 39,000  Level FlightAware Transoceanic
11:09 47.2332 -157.0306 112° Southeast 559 643 39,000  Level FlightAware Transoceanic
11:10 47.1755 -156.8219 112° Southeast 559 643 39,000  Level FlightAware Transoceanic
11:11 47.1175 -156.6136 112° Southeast 559 643 39,000  Level FlightAware Transoceanic
11:12 47.0590 -156.4058 113° Southeast 559 643 39,000  Level FlightAware Transoceanic
11:13 47.0002 -156.1984 113° Southeast 559 643 39,000  Level FlightAware Transoceanic
11:14 46.9634 -156.0408 113° Southeast 553 636 39,000  Level FlightAware Transoceanic
11:15 46.9032 -155.8326 113° Southeast 553 636 39,000  Level FlightAware Transoceanic
11:16 46.8426 -155.6248 113° Southeast 553 636 39,000  Level FlightAware Transoceanic
11:17 46.7817 -155.4175 113° Southeast 553 636 39,000  Level FlightAware Transoceanic
11:18 46.7203 -155.2107 113° Southeast 553 636 39,000  Level FlightAware Transoceanic
11:19 46.6586 -155.0043 114° Southeast 553 636 39,000  Level FlightAware Transoceanic
11:20 46.5966 -154.7984 114° Southeast 553 636 39,000  Level FlightAware Transoceanic
11:21 46.5341 -154.5930 114° Southeast 553 636 39,000  Level FlightAware Transoceanic
11:21 46.4833 -154.4667 114° Southeast 547 629 39,000  Level Oakland Oceanic (ODAPS)
11:22 46.4713 -154.3881 114° Southeast 553 636 39,000  Level FlightAware Transoceanic
11:23 46.4081 -154.1836 114° Southeast 553 636 39,000  Level FlightAware Transoceanic
11:24 46.3446 -153.9796 114° Southeast 553 636 39,000  Level FlightAware Transoceanic
11:25 46.2807 -153.7761 115° Southeast 553 636 39,000  Level FlightAware Transoceanic
11:26 46.2164 -153.5730 115° Southeast 553 636 39,000  Level FlightAware Transoceanic
11:27 46.1518 -153.3705 115° Southeast 553 636 39,000  Level FlightAware Transoceanic
11:28 46.0962 -153.2250 115° Southeast 547 629 39,000  Level FlightAware Transoceanic
11:29 46.0304 -153.0197 115° Southeast 547 629 39,000  Level FlightAware Transoceanic
11:30 45.9642 -152.8150 115° Southeast 547 629 39,000  Level FlightAware Transoceanic
11:31 45.8976 -152.6107 115° Southeast 547 629 39,000  Level FlightAware Transoceanic
11:32 45.8307 -152.4069 115° Southeast 547 629 39,000  Level FlightAware Transoceanic
11:33 45.7634 -152.2036 115° Southeast 547 629 39,000  Level FlightAware Transoceanic
11:34 45.6958 -152.0009 116° Southeast 547 629 39,000  Level FlightAware Transoceanic
11:35 45.6278 -151.7986 116° Southeast 547 629 39,000  Level FlightAware Transoceanic
11:35 45.6167 -151.7500 116° Southeast 539 620 39,000  Level Oakland Oceanic (ODAPS)
11:36 45.5594 -151.5968 116° Southeast 547 629 39,000  Level FlightAware Transoceanic
11:37 45.4907 -151.3954 116° Southeast 547 629 39,000  Level FlightAware Transoceanic
11:38 45.4217 -151.1946 116° Southeast 547 629 39,000  Level FlightAware Transoceanic
11:39 45.3523 -150.9943 116° Southeast 547 629 39,000  Level FlightAware Transoceanic
11:40 45.2825 -150.7944 116° Southeast 547 629 39,000  Level FlightAware Transoceanic
11:41 45.2499 -150.6954 117° Southeast 539 620 39,000  Level FlightAware Transoceanic
11:42 45.1878 -150.5210 117° Southeast 539 620 39,000  Level FlightAware Transoceanic
11:43 45.1255 -150.3470 117° Southeast 539 620 39,000  Level FlightAware Transoceanic
11:44 45.0629 -150.1733 117° Southeast 539 620 39,000  Level FlightAware Transoceanic
11:44 45.0000 -150.0000 109° East 540 621 39,000  Level Oakland Oceanic (ODAPS)
11:45 45.0000 -150.0000 109° East 539 620 39,000  Level FlightAware Transoceanic
11:46 44.9498 -149.7945 109° East 539 620 39,000  Level FlightAware Transoceanic
11:47 44.8993 -149.5894 109° East 539 620 39,000  Level FlightAware Transoceanic
11:48 44.8484 -149.3846 109° East 539 620 39,000  Level FlightAware Transoceanic
11:49 44.7971 -149.1802 110° East 539 620 39,000  Level FlightAware Transoceanic
11:49 44.7667 -149.0833 110° East 543 625 39,000  Level Oakland Oceanic (ODAPS)
11:50 44.7455 -148.9762 110° East 539 620 39,000  Level FlightAware Transoceanic
11:51 44.6995 -148.7960 110° East 540 621 39,000  Level FlightAware Transoceanic
11:52 44.6482 -148.5965 110° East 540 621 39,000  Level FlightAware Transoceanic
11:53 44.5966 -148.3974 110° East 540 621 39,000  Level FlightAware Transoceanic
11:54 44.5446 -148.1987 110° East 540 621 39,000  Level FlightAware Transoceanic
11:55 44.4611 -147.9030 110° East 543 625 39,000  Level FlightAware Transoceanic
11:56 44.4090 -147.7074 111° Southeast 543 625 39,000  Level FlightAware Transoceanic
11:57 44.3565 -147.5123 111° Southeast 543 625 39,000  Level FlightAware Transoceanic
11:58 44.3038 -147.3175 111° Southeast 543 625 39,000  Level FlightAware Transoceanic
11:59 44.2507 -147.1230 111° Southeast 543 625 39,000  Level FlightAware Transoceanic
12:00 44.1973 -146.9289 111° Southeast 543 625 39,000  Level FlightAware Transoceanic
12:01 44.1435 -146.7351 111° Southeast 543 625 39,000  Level FlightAware Transoceanic
12:02 44.0894 -146.5417 111° Southeast 543 625 39,000  Level FlightAware Transoceanic
12:03 44.0350 -146.3487 111° Southeast 543 625 39,000 720 Level FlightAware Transoceanic
12:03 44.0333 -146.3333 112° Southeast 556 640 40,000  Climbing Oakland Oceanic (ODAPS)
12:04 43.9803 -146.1560 112° Southeast 543 625 39,000 -660 Descending FlightAware Transoceanic
12:05 43.9252 -145.9636 112° Southeast 543 625 39,000  Level FlightAware Transoceanic
12:06 43.8698 -145.7716 112° Southeast 543 625 39,000  Level FlightAware Transoceanic
12:07 43.8141 -145.5800 112° Southeast 543 625 39,000  Level FlightAware Transoceanic
12:08 43.7581 -145.3887 112° Southeast 543 625 39,000 480 Level FlightAware Transoceanic
12:09 43.6900 -145.1507 112° Southeast 556 640 40,000 480 Climbing FlightAware Transoceanic
12:10 43.6316 -144.9549 112° Southeast 556 640 40,000  Level FlightAware Transoceanic
12:11 43.5729 -144.7596 113° Southeast 556 640 40,000  Level FlightAware Transoceanic
12:12 43.5138 -144.5645 113° Southeast 556 640 40,000  Level FlightAware Transoceanic
12:13 43.4544 -144.3699 113° Southeast 556 640 40,000  Level FlightAware Transoceanic
12:14 43.3947 -144.1757 113° Southeast 556 640 40,000  Level FlightAware Transoceanic
12:15 43.3346 -143.9818 113° Southeast 556 640 40,000  Level FlightAware Transoceanic
12:16 43.2742 -143.7883 113° Southeast 556 640 40,000  Level FlightAware Transoceanic
12:17 43.2135 -143.5952 113° Southeast 556 640 40,000  Level FlightAware Transoceanic
12:17 43.2000 -143.5667 113° Southeast 561 646 40,000  Level Oakland Oceanic (ODAPS)
12:18 43.1525 -143.4025 114° Southeast 556 640 40,000  Level FlightAware Transoceanic
12:19 43.0911 -143.2102 114° Southeast 556 640 40,000  Level FlightAware Transoceanic
12:20 43.0294 -143.0183 114° Southeast 556 640 40,000  Level FlightAware Transoceanic
12:21 42.9674 -142.8267 114° Southeast 556 640 40,000  Level FlightAware Transoceanic
12:22 42.9051 -142.6355 114° Southeast 556 640 40,000  Level FlightAware Transoceanic
12:23 42.8331 -142.4255 114° Southeast 561 646 40,000  Level FlightAware Transoceanic
12:24 42.7708 -142.2366 114° Southeast 561 646 40,000  Level FlightAware Transoceanic
12:25 42.7082 -142.0482 114° Southeast 561 646 40,000  Level FlightAware Transoceanic
12:26 42.6454 -141.8601 115° Southeast 561 646 40,000  Level FlightAware Transoceanic
12:27 42.5822 -141.6723 115° Southeast 561 646 40,000  Level FlightAware Transoceanic
12:28 42.5187 -141.4850 115° Southeast 561 646 40,000  Level FlightAware Transoceanic
12:29 42.4549 -141.2980 115° Southeast 561 646 40,000  Level FlightAware Transoceanic
12:30 42.3908 -141.1115 115° Southeast 561 646 40,000  Level FlightAware Transoceanic
12:31 42.3265 -140.9253 115° Southeast 561 646 40,000  Level FlightAware Transoceanic
12:31 42.3000 -140.8500 115° Southeast 569 655 40,000  Level Oakland Oceanic (ODAPS)
12:32 42.2617 -140.7395 115° Southeast 561 646 40,000  Level FlightAware Transoceanic
12:33 42.1968 -140.5540 115° Southeast 561 646 40,000  Level FlightAware Transoceanic
12:34 42.1315 -140.3690 116° Southeast 561 646 40,000  Level FlightAware Transoceanic
12:35 42.0659 -140.1843 116° Southeast 561 646 40,000  Level FlightAware Transoceanic
12:35 42.0000 -140.0000 114° Southeast 563 648 40,000  Level Oakland Oceanic (ODAPS)
12:36 42.0000 -140.0000 114° Southeast 561 646 40,000  Level FlightAware Transoceanic
12:37 41.8770 -139.6355 115° Southeast 569 655 40,000  Level FlightAware Transoceanic
12:38 41.8150 -139.4538 115° Southeast 569 655 40,000  Level FlightAware Transoceanic
12:39 41.7528 -139.2725 115° Southeast 569 655 40,000  Level FlightAware Transoceanic
12:40 41.6903 -139.0915 115° Southeast 569 655 40,000  Level FlightAware Transoceanic
12:41 41.6140 -138.8721 115° Southeast 563 648 40,000  Level FlightAware Transoceanic
12:42 41.5486 -138.6855 115° Southeast 563 648 40,000  Level FlightAware Transoceanic
12:43 41.4829 -138.4992 115° Southeast 563 648 40,000  Level FlightAware Transoceanic
12:44 41.4169 -138.3133 115° Southeast 563 648 40,000  Level FlightAware Transoceanic
12:45 41.3506 -138.1278 116° Southeast 563 648 40,000  Level FlightAware Transoceanic
12:45 41.3833 -138.2167 115° Southeast 562 647 40,000  Level Oakland Oceanic (ODAPS)
12:46 41.2840 -137.9427 116° Southeast 563 648 40,000  Level FlightAware Transoceanic
12:47 41.2171 -137.7579 116° Southeast 563 648 40,000  Level FlightAware Transoceanic
12:48 41.1499 -137.5735 116° Southeast 563 648 40,000  Level FlightAware Transoceanic
12:49 41.0824 -137.3895 116° Southeast 563 648 40,000  Level FlightAware Transoceanic
12:50 41.0146 -137.2059 116° Southeast 563 648 40,000  Level FlightAware Transoceanic
12:51 40.9758 -137.0990 116° Southeast 562 647 40,000  Level FlightAware Transoceanic
12:52 40.9068 -136.9140 116° Southeast 562 647 40,000  Level FlightAware Transoceanic
12:53 40.8375 -136.7295 116° Southeast 562 647 40,000  Level FlightAware Transoceanic
12:54 40.7680 -136.5453 117° Southeast 562 647 40,000  Level FlightAware Transoceanic
12:55 40.6981 -136.3615 117° Southeast 562 647 40,000  Level FlightAware Transoceanic
12:56 40.6280 -136.1781 117° Southeast 562 647 40,000  Level FlightAware Transoceanic
12:57 40.5576 -135.9951 117° Southeast 562 647 40,000  Level FlightAware Transoceanic
12:58 40.4868 -135.8125 117° Southeast 562 647 40,000  Level FlightAware Transoceanic
12:58 40.4167 -135.6500 117° Southeast 560 644 40,000  Level Oakland Oceanic (ODAPS)
12:59 40.4158 -135.6303 117° Southeast 562 647 40,000  Level FlightAware Transoceanic
13:00 40.3445 -135.4484 117° Southeast 562 647 40,000  Level FlightAware Transoceanic
13:01 40.2730 -135.2670 117° Southeast 562 647 40,000  Level FlightAware Transoceanic
13:02 40.2011 -135.0859 118° Southeast 562 647 40,000  Level FlightAware Transoceanic
13:03 40.1290 -134.9052 118° Southeast 562 647 40,000  Level FlightAware Transoceanic
13:04 40.0565 -134.7249 118° Southeast 562 647 40,000  Level FlightAware Transoceanic
13:05 39.9847 -134.5609 118° Southeast 560 644 40,000  Level FlightAware Transoceanic
13:06 39.9117 -134.3807 118° Southeast 560 644 40,000  Level FlightAware Transoceanic
13:07 39.8384 -134.2009 118° Southeast 560 644 40,000  Level FlightAware Transoceanic
13:08 39.7649 -134.0215 118° Southeast 560 644 40,000  Level FlightAware Transoceanic
13:09 39.6911 -133.8425 118° Southeast 560 644 40,000  Level FlightAware Transoceanic
13:10 39.6170 -133.6638 118° Southeast 560 644 40,000  Level FlightAware Transoceanic
13:11 39.5426 -133.4856 118° Southeast 560 644 40,000  Level FlightAware Transoceanic
13:12 39.4680 -133.3077 119° Southeast 560 644 40,000  Level FlightAware Transoceanic
13:12 39.4167 -133.1667 119° Southeast 556 640 40,000  Level Oakland Oceanic (ODAPS)
13:13 39.3931 -133.1302 119° Southeast 560 644 40,000  Level FlightAware Transoceanic
13:14 39.3179 -132.9531 119° Southeast 560 644 40,000  Level FlightAware Transoceanic
13:15 39.2425 -132.7764 119° Southeast 560 644 40,000  Level FlightAware Transoceanic
13:16 39.1668 -132.6000 119° Southeast 560 644 40,000  Level FlightAware Transoceanic
13:17 39.0908 -132.4240 119° Southeast 560 644 40,000  Level FlightAware Transoceanic
13:18 39.0145 -132.2484 119° Southeast 560 644 40,000  Level FlightAware Transoceanic
13:19 38.9540 -132.0971 120° Southeast 556 640 40,000  Level FlightAware Transoceanic
13:20 38.8759 -131.9203 120° Southeast 556 640 40,000  Level FlightAware Transoceanic
13:21 38.7976 -131.7437 120° Southeast 556 640 40,000  Level FlightAware Transoceanic
13:22 38.7190 -131.5676 120° Southeast 556 640 40,000  Level FlightAware Transoceanic
13:23 38.6402 -131.3919 120° Southeast 556 640 40,000  Level FlightAware Transoceanic
13:24 38.5610 -131.2166 120° Southeast 556 640 40,000  Level FlightAware Transoceanic
13:25 38.4817 -131.0416 120° Southeast 556 640 40,000  Level FlightAware Transoceanic
13:26 38.4020 -130.8671 120° Southeast 556 640 40,000  Level FlightAware Transoceanic
13:26 38.3833 -130.8167 121° Southeast 545 627 40,000  Level Oakland Oceanic (ODAPS)
13:27 38.3221 -130.6929 120° Southeast 556 640 40,000  Level FlightAware Transoceanic
13:28 38.2420 -130.5191 120° Southeast 556 640 40,000  Level FlightAware Transoceanic
13:29 38.1616 -130.3457 121° Southeast 556 640 40,000  Level FlightAware Transoceanic
13:30 38.0809 -130.1727 121° Southeast 556 640 40,000  Level FlightAware Transoceanic
13:31 38.0000 -130.0000 101° East 556 640 40,000  Level FlightAware Transoceanic
13:31 38.0000 -130.0000 101° East 553 636 40,000  Level Oakland Oceanic (ODAPS)
13:32 37.9710 -129.8113 101° East 556 640 40,000  Level FlightAware Transoceanic
13:33 37.9451 -129.6450 101° East 545 627 40,000  Level FlightAware Transoceanic
13:34 37.9173 -129.4677 101° East 545 627 40,000  Level FlightAware Transoceanic
13:35 37.8892 -129.2905 101° East 545 627 40,000  Level FlightAware Transoceanic
13:36 37.8609 -129.1135 102° East 545 627 40,000  Level FlightAware Transoceanic
13:37 37.8214 -128.8703 102° East 553 636 40,000  Level FlightAware Transoceanic
13:38 37.7906 -128.6825 102° East 553 636 40,000  Level FlightAware Transoceanic
13:39 37.7595 -128.4949 102° East 553 636 40,000  Level FlightAware Transoceanic
13:40 37.7281 -128.3075 102° East 553 636 40,000  Level FlightAware Transoceanic
13:40 37.7333 -128.3000 102° East 548 631 40,000  Level Oakland Oceanic (ODAPS)
13:41 37.6964 -128.1202 102° East 553 636 40,000  Level FlightAware Transoceanic
13:42 37.6644 -127.9331 102° East 553 636 40,000  Level FlightAware Transoceanic
13:43 37.6321 -127.7462 102° East 553 636 40,000  Level FlightAware Transoceanic
13:44 37.5995 -127.5594 102° East 553 636 40,000  Level FlightAware Transoceanic
13:45 37.5666 -127.3727 103° East 553 636 40,000  Level FlightAware Transoceanic
13:46 37.5342 -127.1852 103° East 548 631 40,000  Level FlightAware Transoceanic
13:47 37.5000 -127.0000 93° East 548 631 40,000  Level FlightAware Transoceanic
13:48 37.4918 -126.8116 93° East 548 631 40,000  Level FlightAware Transoceanic
13:49 37.4832 -126.6232 93° East 548 631 40,000  Level FlightAware Transoceanic
13:49 37.4840 -126.5010 93° East 562 647 40,000  Level FlightAware
13:50 37.4744 -126.4349 93° East 548 631 40,000  Level FlightAware Transoceanic
13:50 37.4780 -126.3710 93° East 561 646 40,000  Level FlightAware
13:51 37.4730 -126.2580 93° East 558 642 40,000  Level FlightAware
13:51 37.4660 -126.1210 94° East 555 639 40,000  Level FlightAware
13:52 37.4600 -126.0110 94° East 553 636 40,000  Level FlightAware
13:52 37.4560 -125.9210 93° East 553 636 40,000  Level FlightAware
13:53 37.4520 -125.8200 93° East 553 636 40,000  Level FlightAware
13:54 37.4480 -125.7190 93° East 553 636 40,000  Level FlightAware
13:54 37.4440 -125.6200 93° East 553 636 40,000  Level FlightAware
13:55 37.4400 -125.5220 93° East 553 636 40,000  Level FlightAware
13:55 37.4370 -125.4560 93° East 553 636 40,000  Level FlightAware
13:56 37.4160 -125.2060 96° East 553 636 40,000  Level FlightAware
13:57 37.4100 -125.0950 94° East 552 635 40,000  Level FlightAware
13:57 37.4040 -124.9890 94° East 550 633 40,000  Level FlightAware
13:58 37.3970 -124.8780 95° East 551 634 40,000  Level FlightAware
13:58 37.3900 -124.7580 94° East 552 635 40,000  Level FlightAware
13:59 37.3840 -124.6610 94° East 552 635 40,000  Level FlightAware
14:00 37.3760 -124.5440 95° East 552 635 40,000  Level FlightAware
14:00 37.3680 -124.4200 95° East 552 635 40,000 -240 Level FlightAware
14:01 37.3590 -124.2810 95° East 550 633 39,700 -780 Descending FlightAware
14:02 37.3520 -124.1740 95° East 551 634 39,000 -600 Descending FlightAware
14:02 37.3440 -124.0570 95° East 552 635 39,000  Level FlightAware
14:03 37.3370 -123.9540 95° East 553 636 39,000  Level FlightAware
14:03 37.3290 -123.8370 95° East 554 638 39,000  Level FlightAware
14:04 37.3220 -123.7300 95° East 556 640 39,000  Level FlightAware
14:05 37.3120 -123.5910 95° East 557 641 39,000  Level FlightAware
14:05 37.3050 -123.4920 95° East 557 641 39,000  Level FlightAware
14:06 37.2940 -123.3390 95° East 527 606 39,000  Level FlightAware
14:07 37.2820 -123.1780 95° East 560 644 39,000  Level FlightAware
14:07 37.2720 -123.0550 96° East 561 646 39,000  Level FlightAware
14:08 37.2570 -122.9000 97° East 551 634 39,000  Level FlightAware
14:09 37.2290 -122.8120 112° Southeast 536 617 39,000  Level FlightAware
14:09 37.1860 -122.7300 123° Southeast 531 611 39,000  Level FlightAware
14:10 37.1330 -122.6310 124° Southeast 530 610 39,000  Level FlightAware
14:10 37.0820 -122.5370 124° Southeast 528 608 39,000  Level FlightAware
14:11 37.0690 -122.5110 122° Southeast 528 608 39,000  Level FlightAware
14:11 37.0296 -122.4390 124° Southeast 526 605 39,000  Level FlightAware ADS-B
14:12 36.9550 -122.3030 124° Southeast 524 603 39,000  Level FlightAware
14:13 36.9100 -122.2190 124° Southeast 525 604 39,000  Level FlightAware
14:13 36.8787 -122.1620 124° Southeast 526 605 39,000  Level FlightAware ADS-B
14:14 36.8092 -122.0350 124° Southeast 530 610 39,000  Level FlightAware ADS-B
14:14 36.7640 -121.9530 125° Southeast 530 610 39,000  Level FlightAware
14:15 36.7070 -121.8490 124° Southeast 530 610 39,000  Level FlightAware ADS-B
14:16 36.6598 -121.7640 125° Southeast 530 610 39,000  Level FlightAware ADS-B
14:16 36.6160 -121.6850 125° Southeast 529 609 39,000  Level FlightAware
14:16 36.5849 -121.6280 124° Southeast 529 609 39,000  Level FlightAware ADS-B
14:17 36.5236 -121.5180 125° Southeast 530 610 39,000  Level FlightAware ADS-B
14:18 36.4700 -121.4210 124° Southeast 531 611 39,000  Level FlightAware
14:18 36.4581 -121.4010 126° Southeast 531 611 39,000  Level FlightAware ADS-B
14:19 36.3927 -121.2840 125° Southeast 530 610 39,000  Level FlightAware ADS-B
14:20 36.3240 -121.1610 125° Southeast 529 609 39,000  Level FlightAware
14:20 36.2730 -121.0720 125° Southeast 528 608 39,000  Level FlightAware
14:21 36.2290 -120.9920 124° Southeast 527 606 39,000  Level FlightAware
14:21 36.1760 -120.8990 125° Southeast 527 606 39,000  Level FlightAware
14:22 36.1290 -120.8170 125° Southeast 527 606 39,000  Level FlightAware
14:22 36.0800 -120.7310 125° Southeast 527 606 39,000  Level FlightAware
14:23 36.0290 -120.6410 125° Southeast 528 608 39,000  Level FlightAware
14:24 35.9840 -120.5620 125° Southeast 529 609 39,000  Level FlightAware
14:24 35.9360 -120.4790 126° Southeast 531 611 39,000  Level FlightAware
14:25 35.8820 -120.3850 125° Southeast 532 612 39,000  Level FlightAware
14:25 35.8360 -120.3050 125° Southeast 532 612 39,000  Level FlightAware
14:26 35.7910 -120.2270 125° Southeast 532 612 39,000  Level FlightAware
14:27 35.7340 -120.1290 126° Southeast 532 612 39,000  Level FlightAware
14:27 35.6820 -120.0380 125° Southeast 533 613 39,000  Level FlightAware
14:28 35.6340 -119.9720 132° Southeast 523 602 39,000  Level FlightAware
14:28 35.5620 -119.9050 143° Southeast 513 590 39,000  Level FlightAware
14:29 35.5020 -119.8530 145° Southeast 514 592 39,000 -360 Level FlightAware
14:29 35.4250 -119.7860 145° Southeast 512 589 38,600 -1,380 Descending FlightAware
14:30 35.3570 -119.7280 145° Southeast 515 593 37,400 -2,340 Descending FlightAware
14:31 35.2880 -119.6690 145° Southeast 518 596 35,900 -2,640 Descending FlightAware
14:31 35.2130 -119.6050 145° Southeast 521 600 34,200 -2,760 Descending FlightAware
14:32 35.1430 -119.5450 145° Southeast 523 602 32,500 -2,640 Descending FlightAware
14:32 35.0830 -119.4940 145° Southeast 523 602 31,300 -2,340 Descending FlightAware
14:33 35.0120 -119.4330 145° Southeast 514 592 29,900 -2,760 Descending FlightAware
14:34 34.9440 -119.3750 145° Southeast 511 588 28,100 -2,700 Descending FlightAware
14:34 34.8700 -119.3120 145° Southeast 501 577 26,700 -2,280 Descending FlightAware
14:35 34.8240 -119.2730 145° Southeast 491 565 25,700 -2,340 Descending FlightAware
14:35 34.7460 -119.2070 145° Southeast 476 548 24,100 -2,400 Descending FlightAware
14:36 34.6810 -119.1530 146° Southeast 462 532 22,600 -2,520 Descending FlightAware
14:36 34.6230 -119.1040 145° Southeast 454 522 21,200 -2,580 Descending FlightAware
14:37 34.5640 -119.0550 146° Southeast 445 512 19,700 -2,640 Descending FlightAware
14:38 34.5090 -119.0090 145° Southeast 438 504 18,300 -2,640 Descending FlightAware
14:38 34.4410 -118.9520 145° Southeast 428 493 16,500 -2,520 Descending FlightAware
14:39 34.3980 -118.9150 145° Southeast 426 490 15,300 -2,460 Descending FlightAware
14:39 34.3410 -118.8770 151° Southeast 412 474 14,000 -2,400 Descending FlightAware
14:40 34.2780 -118.8520 162° South 397 457 12,700 -1,620 Descending FlightAware
14:40 34.2160 -118.8290 163° South 371 427 12,100 -660 Descending FlightAware
14:41 34.1660 -118.8110 163° South 329 379 12,000 -360 Descending FlightAware
14:42 34.1150 -118.7930 164° South 301 346 11,700 -840 Descending FlightAware
14:42 34.0730 -118.7770 162° South 294 338 11,100 -1,260 Descending FlightAware
14:42 34.0600 -118.7680 150° Southeast 296 341 10,800 -1,380 Descending FlightAware
14:43 34.0490 -118.7560 138° Southeast 295 339 10,600 -900 Descending FlightAware
14:43 34.0370 -118.7310 120° Southeast 292 336 10,400 -720 Descending FlightAware
14:43 34.0340 -118.7140 102° East 290 334 10,300 -540 Descending FlightAware
14:44 34.0290 -118.6560 96° East 272 313 10,000 -660 Descending FlightAware
14:44 34.0260 -118.6280 97° East 267 307 9,700 -780 Descending FlightAware
14:44 34.0240 -118.5990 95° East 263 303 9,500 -840 Descending FlightAware
14:45 34.0200 -118.5620 97° East 257 296 9,100 -960 Descending FlightAware
14:45 34.0170 -118.5330 97° East 254 292 8,800 -1,080 Descending FlightAware
14:45 34.0150 -118.5070 95° East 254 292 8,400 -1,260 Descending FlightAware
14:46 34.0120 -118.4790 97° East 253 291 8,000 -1,140 Descending FlightAware
14:46 34.0150 -118.4300 86° East 248 285 7,400 -1,140 Descending FlightAware
14:47 34.0190 -118.4050 79° East 246 283 7,000 -1,260 Descending FlightAware
14:47 34.0230 -118.3800 79° East 244 281 6,600 -1,440 Descending FlightAware
14:47 34.0280 -118.3510 78° East 245 282 6,100 -1,500 Descending FlightAware
14:48 34.0320 -118.3220 81° East 244 281 5,600 -1,200 Descending FlightAware
14:48 34.0360 -118.2960 79° East 239 275 5,300 -1,080 Descending FlightAware
14:48 34.0400 -118.2710 79° East 236 272 4,900 -1,320 Descending FlightAware
14:48 34.0430 -118.2480 81° East 236 272 4,500 -1,140 Descending FlightAware
14:49 34.0470 -118.2220 79° East 230 265 4,200 -900 Descending FlightAware
14:49 34.0500 -118.1970 82° East 217 250 3,900 -780 Descending FlightAware
14:50 34.0530 -118.1740 81° East 206 237 3,700 -720 Descending FlightAware
14:50 34.0540 -118.1580 86° East 199 229 3,500 -720 Descending FlightAware
14:50 34.0460 -118.1370 115° Southeast 187 215 3,300 -720 Descending FlightAware
14:50 34.0430 -118.1350 151° Southeast 187 215 3,200 -1,320 Descending FlightAware
14:50 34.0350 -118.1320 163° South 187 215 3,000 -1,080 Descending FlightAware
14:51 34.0180 -118.1300 174° South 188 216 2,700 -1,080 Descending FlightAware
14:51 34.0020 -118.1280 174° South 188 216 2,300 -720 Descending FlightAware
14:51 33.9840 -118.1400 209° Southwest 189 217 2,200 -240 Descending FlightAware
14:51 33.9810 -118.1460 239° Southwest 189 217 2,200  Level FlightAware
14:52 33.9780 -118.1520 239° Southwest 188 216 2,200  Level FlightAware
14:52 33.9760 -118.1630 258° West 188 216 2,200  Level FlightAware
14:52 33.9740 -118.1830 263° West 188 216 2,200  Level FlightAware
14:52 33.9720 -118.2020 263° West 186 214 2,200  Level FlightAware
14:53 33.9700 -118.2230 263° West 186 214 2,200  Level FlightAware
14:53 33.9680 -118.2480 264° West 187 215 2,200  Level FlightAware
14:53 33.9660 -118.2650 262° West 181 208 2,200 -300 Level FlightAware
14:54 33.9630 -118.2900 262° West 167 192 2,000 -660 Descending FlightAware
14:54 33.9620 -118.3080 266° West 162 186 1,700 -900 Descending FlightAware
14:55 33.9600 -118.3240 261° West 150 173 1,400 -840 Descending FlightAware
14:55 33.9590 -118.3370 265° West 147 169 1,200 -300 Descending FlightAware
14:55 33.9570 -118.3560 263° West 147 169 1,200 -600 Level FlightAware
14:57 33.9508 -118.4269 263° West 147 169 100 -780 Descending Los Angeles Center
14:59 33.9425 -118.4081 73° East  Level Estimated